createdAt,value
2018-02-16T00:01:36.618Z,3.70
2018-02-16T00:04:07.787Z,3.50
2018-02-16T00:06:37.993Z,3.50
2018-02-16T00:09:08.819Z,3.50
2018-02-16T00:11:39.115Z,3.40
2018-02-16T00:14:10.878Z,3.50
2018-02-16T00:16:41.044Z,3.50
2018-02-16T00:19:11.015Z,3.40
2018-02-16T00:21:41.432Z,3.30
2018-02-16T00:24:11.425Z,3.30
2018-02-16T00:26:41.676Z,3.30
2018-02-16T00:29:11.762Z,3.30
2018-02-16T00:31:42.179Z,3.30
2018-02-16T00:34:12.321Z,3.10
2018-02-16T00:36:42.760Z,3.10
2018-02-16T00:39:13.236Z,3.10
2018-02-16T00:41:43.927Z,3.20
2018-02-16T00:44:14.367Z,3.20
2018-02-16T00:46:44.520Z,3.20
2018-02-16T00:49:14.876Z,3.20
2018-02-16T00:51:45.277Z,3.20
2018-02-16T00:54:15.285Z,3.10
2018-02-16T00:56:45.571Z,3.10
2018-02-16T00:59:15.719Z,3.10
2018-02-16T01:01:46.865Z,3.10
2018-02-16T01:04:17.407Z,3.10
2018-02-16T01:06:47.603Z,3.10
2018-02-16T01:09:18.685Z,3.10
2018-02-16T01:11:48.832Z,3.10
2018-02-16T01:14:19.717Z,3.10
2018-02-16T01:16:50.063Z,3.00
2018-02-16T01:19:20.339Z,2.90
2018-02-16T01:21:51.157Z,2.80
2018-02-16T01:24:21.154Z,2.80
2018-02-16T01:26:51.135Z,2.80
2018-02-16T01:29:21.881Z,2.70
2018-02-16T01:31:52.210Z,2.70
2018-02-16T01:34:22.186Z,2.60
2018-02-16T01:36:53.202Z,2.60
2018-02-16T01:39:23.446Z,2.60
2018-02-16T01:41:54.646Z,2.60
2018-02-16T01:44:25.398Z,2.60
2018-02-16T01:46:56.178Z,2.60
2018-02-16T01:49:26.301Z,2.50
2018-02-16T01:51:57.043Z,2.50
2018-02-16T01:54:27.726Z,2.40
2018-02-16T01:56:58.924Z,2.50
2018-02-16T01:59:29.401Z,2.40
2018-02-16T02:01:59.646Z,2.40
2018-02-16T02:04:29.785Z,2.30
2018-02-16T02:07:00.611Z,2.30
2018-02-16T02:09:30.957Z,2.30
2018-02-16T02:12:01.403Z,2.30
2018-02-16T02:14:32.059Z,2.30
2018-02-16T02:17:02.705Z,2.40
2018-02-16T02:19:33.232Z,2.30
2018-02-16T02:22:03.959Z,2.30
2018-02-16T02:24:34.820Z,2.20
2018-02-16T02:27:05.254Z,2.20
2018-02-16T02:29:35.335Z,2.20
2018-02-16T02:32:05.927Z,2.10
2018-02-16T02:34:36.286Z,2.20
2018-02-16T02:37:07.528Z,2.10
2018-02-16T02:39:38.691Z,2.00
2018-02-16T02:42:09.446Z,2.00
2018-02-16T02:44:40.071Z,1.90
2018-02-16T02:47:10.482Z,1.90
2018-02-16T02:49:41.847Z,1.90
2018-02-16T02:52:12.362Z,1.90
2018-02-16T02:54:43.179Z,1.90
2018-02-16T02:57:14.019Z,1.90
2018-02-16T02:59:44.990Z,1.80
2018-02-16T03:02:15.494Z,1.90
2018-02-16T03:04:45.904Z,1.80
2018-02-16T03:07:16.770Z,1.60
2018-02-16T03:09:46.907Z,1.60
2018-02-16T03:14:41.954Z,1.40
2018-02-16T03:17:12.398Z,1.30
2018-02-16T03:19:43.385Z,1.40
2018-02-16T03:22:15.891Z,1.40
2018-02-16T03:24:46.498Z,1.40
2018-02-16T03:27:16.859Z,1.50
2018-02-16T03:29:47.365Z,1.40
2018-02-16T03:32:17.942Z,1.30
2018-02-16T03:34:48.682Z,1.20
2018-02-16T03:37:19.359Z,1.20
2018-02-16T03:39:49.755Z,1.20
2018-02-16T03:42:20.076Z,1.20
2018-02-16T03:44:50.370Z,1.20
2018-02-16T03:47:20.770Z,1.10
2018-02-16T03:49:50.915Z,1.10
2018-02-16T03:52:21.950Z,1.00
2018-02-16T03:54:52.762Z,1.00
2018-02-16T03:57:23.270Z,1.00
2018-02-16T03:59:53.490Z,0.90
2018-02-16T04:02:23.859Z,1.10
2018-02-16T04:04:54.422Z,1.10
2018-02-16T04:07:24.998Z,1.10
2018-02-16T04:09:55.354Z,1.10
2018-02-16T04:12:26.409Z,1.10
2018-02-16T04:14:57.246Z,1.10
2018-02-16T04:17:27.368Z,1.10
2018-02-16T04:19:57.841Z,1.20
2018-02-16T04:22:28.359Z,1.10
2018-02-16T04:24:58.914Z,1.20
2018-02-16T04:27:28.994Z,1.20
2018-02-16T04:29:59.540Z,1.20
2018-02-16T04:32:30.678Z,1.20
2018-02-16T04:35:00.907Z,1.20
2018-02-16T04:37:31.354Z,1.20
2018-02-16T04:40:02.298Z,1.20
2018-02-16T04:42:32.553Z,1.20
2018-02-16T04:45:03.058Z,1.30
2018-02-16T04:47:34.006Z,1.30
2018-02-16T04:50:04.318Z,1.30
2018-02-16T04:52:34.486Z,1.30
2018-02-16T04:55:04.910Z,1.30
2018-02-16T04:57:35.415Z,1.40
2018-02-16T05:00:07.975Z,1.40
2018-02-16T05:02:39.167Z,1.40
2018-02-16T05:05:09.745Z,1.40
2018-02-16T05:07:40.229Z,1.40
2018-02-16T05:10:10.891Z,1.40
2018-02-16T05:12:41.759Z,1.20
2018-02-16T05:15:11.982Z,1.20
2018-02-16T05:17:42.162Z,1.20
2018-02-16T05:20:12.578Z,1.20
2018-02-16T05:22:44.190Z,1.10
2018-02-16T05:25:15.428Z,1.10
2018-02-16T05:27:45.682Z,1.10
2018-02-16T05:30:16.360Z,1.10
2018-02-16T05:32:47.985Z,1.10
2018-02-16T05:35:18.338Z,1.10
2018-02-16T05:37:55.754Z,1.10
2018-02-16T05:40:34.059Z,1.00
2018-02-16T05:43:07.739Z,1.10
2018-02-16T05:45:45.166Z,1.10
2018-02-16T05:48:15.782Z,1.10
2018-02-16T05:50:45.907Z,1.00
2018-02-16T05:53:16.338Z,1.10
2018-02-16T05:55:47.606Z,1.10
2018-02-16T05:58:17.867Z,1.00
2018-02-16T06:00:48.766Z,1.00
2018-02-16T06:03:19.118Z,1.00
2018-02-16T06:05:50.272Z,0.90
2018-02-16T06:08:21.584Z,0.90
2018-02-16T06:10:51.734Z,0.90
2018-02-16T06:13:22.194Z,0.90
2018-02-16T06:15:52.344Z,0.90
2018-02-16T06:18:22.654Z,0.90
2018-02-16T06:20:52.814Z,0.90
2018-02-16T06:23:23.303Z,0.90
2018-02-16T06:25:53.399Z,0.80
2018-02-16T06:28:23.816Z,0.80
2018-02-16T06:30:54.412Z,0.90
2018-02-16T06:33:24.747Z,0.80
2018-02-16T06:35:56.086Z,0.90
2018-02-16T06:38:26.634Z,0.90
2018-02-16T06:40:57.553Z,0.90
2018-02-16T06:43:28.442Z,0.90
2018-02-16T06:45:58.622Z,0.90
2018-02-16T06:48:29.895Z,0.90
2018-02-16T06:51:00.190Z,0.80
2018-02-16T06:53:31.114Z,0.90
2018-02-16T06:56:01.325Z,0.90
2018-02-16T06:58:31.786Z,1.00
2018-02-16T07:01:02.724Z,1.00
2018-02-16T07:03:33.211Z,1.00
2018-02-16T07:06:03.492Z,1.00
2018-02-16T07:08:33.717Z,1.00
2018-02-16T07:11:04.313Z,1.00
2018-02-16T07:13:35.278Z,1.00
2018-02-16T07:16:05.443Z,1.00
2018-02-16T07:18:36.794Z,1.00
2018-02-16T07:21:07.002Z,1.10
2018-02-16T07:23:37.129Z,1.10
2018-02-16T07:26:07.342Z,1.10
2018-02-16T07:28:37.478Z,1.00
2018-02-16T07:31:07.616Z,1.10
2018-02-16T07:33:38.125Z,1.10
2018-02-16T07:36:08.266Z,1.20
2018-02-16T07:38:39.239Z,1.30
2018-02-16T07:41:09.415Z,1.30
2018-02-16T07:43:39.642Z,1.40
2018-02-16T07:46:09.800Z,1.60
2018-02-16T07:48:40.237Z,1.70
2018-02-16T07:51:10.392Z,1.80
2018-02-16T07:53:40.561Z,2.10
2018-02-16T07:56:10.700Z,2.20
2018-02-16T07:58:40.914Z,2.40
2018-02-16T08:01:11.419Z,2.90
2018-02-16T08:03:41.939Z,3.30
2018-02-16T08:06:12.194Z,3.60
2018-02-16T08:08:42.434Z,3.90
2018-02-16T08:11:12.597Z,3.80
2018-02-16T08:13:43.637Z,3.50
2018-02-16T08:16:14.686Z,3.80
2018-02-16T08:18:45.212Z,3.70
2018-02-16T08:21:15.495Z,3.80
2018-02-16T08:23:45.706Z,3.90
2018-02-16T08:26:15.900Z,4.10
2018-02-16T08:28:48.404Z,4.20
2018-02-16T08:31:18.534Z,4.30
2018-02-16T08:33:48.719Z,4.20
2018-02-16T08:36:19.353Z,4.10
2018-02-16T08:38:49.549Z,4.60
2018-02-16T08:41:19.718Z,4.50
2018-02-16T08:46:25.308Z,4.40
2018-02-16T08:48:55.722Z,4.60
2018-02-16T08:51:25.905Z,4.30
2018-02-16T08:53:56.407Z,4.40
2018-02-16T08:56:26.562Z,4.70
2018-02-16T08:58:56.733Z,4.70
2018-02-16T09:01:27.860Z,4.80
2018-02-16T09:03:57.989Z,4.90
2018-02-16T09:06:28.992Z,5.00
2018-02-16T09:08:59.986Z,5.00
2018-02-16T09:11:30.427Z,5.00
2018-02-16T09:14:00.617Z,5.30
2018-02-16T09:16:31.603Z,5.80
2018-02-16T09:19:03.534Z,5.80
2018-02-16T09:21:33.918Z,5.70
2018-02-16T09:24:04.091Z,5.80
2018-02-16T09:26:34.412Z,6.50
2018-02-16T09:29:04.565Z,6.20
2018-02-16T09:31:34.957Z,6.10
2018-02-16T09:34:05.177Z,5.90
2018-02-16T09:36:38.542Z,5.80
2018-02-16T09:39:10.874Z,5.80
2018-02-16T09:41:42.107Z,5.70
2018-02-16T09:44:12.632Z,5.60
2018-02-16T09:46:42.902Z,5.50
2018-02-16T09:49:13.151Z,5.90
2018-02-16T09:51:43.351Z,6.20
2018-02-16T09:54:14.647Z,6.10
2018-02-16T09:56:44.861Z,6.10
2018-02-16T09:59:16.555Z,6.50
2018-02-16T10:01:47.766Z,6.70
2018-02-16T10:04:18.781Z,6.90
2018-02-16T10:06:50.014Z,7.40
2018-02-16T10:09:21.307Z,7.90
2018-02-16T10:11:51.662Z,7.90
2018-02-16T10:14:21.928Z,7.60
2018-02-16T10:16:52.155Z,7.10
2018-02-16T10:19:22.394Z,6.80
2018-02-16T10:21:52.941Z,6.90
2018-02-16T10:24:23.525Z,7.20
2018-02-16T10:26:54.058Z,6.80
2018-02-16T10:29:24.511Z,6.60
2018-02-16T10:31:55.136Z,6.60
2018-02-16T10:34:25.316Z,6.20
2018-02-16T10:36:56.324Z,5.90
2018-02-16T10:39:26.509Z,5.90
2018-02-16T10:41:56.715Z,5.70
2018-02-16T10:44:26.867Z,5.40
2018-02-16T10:46:59.071Z,5.20
2018-02-16T10:49:29.224Z,5.30
2018-02-16T10:51:59.781Z,5.40
2018-02-16T10:54:30.014Z,5.30
2018-02-16T10:57:00.177Z,5.30
2018-02-16T10:59:31.318Z,5.50
2018-02-16T11:02:08.413Z,5.50
2018-02-16T11:04:42.789Z,5.40
2018-02-16T11:07:18.924Z,5.70
2018-02-16T11:09:49.119Z,5.70
2018-02-16T11:12:19.328Z,5.70
2018-02-16T11:14:49.605Z,5.60
2018-02-16T11:17:20.208Z,5.70
2018-02-16T11:19:50.424Z,5.80
2018-02-16T11:22:20.685Z,5.60
2018-02-16T11:24:50.951Z,5.60
2018-02-16T11:27:21.187Z,5.80
2018-02-16T11:29:52.543Z,6.00
2018-02-16T11:32:22.806Z,5.90
2018-02-16T11:34:53.151Z,5.90
2018-02-16T11:37:23.443Z,6.20
2018-02-16T11:39:55.931Z,6.60
2018-02-16T11:42:26.963Z,6.60
2018-02-16T11:44:57.150Z,6.60
2018-02-16T11:47:27.343Z,6.70
2018-02-16T11:49:57.877Z,6.70
2018-02-16T11:52:28.117Z,6.70
2018-02-16T11:54:58.584Z,6.80
2018-02-16T11:57:28.959Z,6.60
2018-02-16T11:59:59.469Z,6.30
2018-02-16T12:02:30.696Z,6.10
2018-02-16T12:05:01.803Z,6.10
2018-02-16T12:07:33.341Z,6.00
2018-02-16T12:10:03.658Z,6.30
2018-02-16T12:12:33.938Z,6.90
2018-02-16T12:15:04.264Z,6.70
2018-02-16T12:17:35.541Z,6.90
2018-02-16T12:20:05.856Z,6.90
2018-02-16T12:22:36.488Z,6.80
2018-02-16T12:25:07.503Z,8.00
2018-02-16T12:27:39.476Z,8.40
2018-02-16T12:30:11.788Z,8.50
2018-02-16T12:32:42.045Z,8.40
2018-02-16T12:35:12.305Z,8.90
2018-02-16T12:37:43.936Z,8.70
2018-02-16T12:40:14.359Z,8.60
2018-02-16T12:42:44.674Z,7.90
2018-02-16T12:45:15.117Z,7.40
2018-02-16T12:47:46.103Z,7.40
2018-02-16T12:50:16.311Z,7.60
2018-02-16T12:52:46.653Z,7.60
2018-02-16T12:55:16.815Z,8.20
2018-02-16T12:57:47.313Z,8.40
2018-02-16T13:00:17.526Z,9.10
2018-02-16T13:02:47.877Z,9.30
2018-02-16T13:05:18.486Z,9.60
2018-02-16T13:07:49.414Z,9.50
2018-02-16T13:10:19.700Z,9.20
2018-02-16T13:12:49.928Z,9.00
2018-02-16T13:15:20.151Z,9.00
2018-02-16T13:17:50.730Z,8.40
2018-02-16T13:20:21.548Z,8.50
2018-02-16T13:22:51.885Z,9.00
2018-02-16T13:25:22.533Z,9.50
2018-02-16T13:27:56.409Z,9.70
2018-02-16T13:30:45.900Z,9.50
2018-02-16T13:33:31.765Z,9.30
2018-02-16T13:36:10.950Z,9.10
2018-02-16T13:38:42.813Z,9.30
2018-02-16T13:41:13.351Z,9.30
2018-02-16T13:43:44.315Z,8.60
2018-02-16T13:46:14.492Z,8.60
2018-02-16T13:48:45.559Z,8.10
2018-02-16T13:51:15.799Z,8.10
2018-02-16T13:53:47.454Z,7.90
2018-02-16T13:56:17.636Z,7.90
2018-02-16T13:58:48.619Z,8.40
2018-02-16T14:01:18.924Z,8.30
2018-02-16T14:03:51.867Z,8.80
2018-02-16T14:06:22.993Z,9.00
2018-02-16T14:08:53.962Z,8.90
2018-02-16T14:11:24.181Z,9.00
2018-02-16T14:13:54.407Z,8.50
2018-02-16T14:19:03.335Z,8.00
2018-02-16T14:21:35.263Z,7.80
2018-02-16T14:24:06.955Z,7.70
2018-02-16T14:26:37.169Z,7.60
2018-02-16T14:29:07.375Z,7.50
2018-02-16T14:31:37.533Z,7.40
2018-02-16T14:34:07.800Z,7.40
2018-02-16T14:36:38.085Z,7.40
2018-02-16T14:39:10.369Z,7.60
2018-02-16T14:41:40.564Z,7.50
2018-02-16T14:44:10.797Z,7.70
2018-02-16T14:46:41.008Z,7.80
2018-02-16T14:49:11.210Z,7.80
2018-02-16T14:51:41.383Z,7.90
2018-02-16T14:54:11.866Z,7.90
2018-02-16T14:56:42.048Z,7.60
2018-02-16T14:59:12.215Z,7.80
2018-02-16T15:01:43.168Z,8.10
2018-02-16T15:04:13.553Z,8.10
2018-02-16T15:06:43.722Z,8.10
2018-02-16T15:09:14.281Z,8.10
2018-02-16T15:11:44.822Z,8.10
2018-02-16T15:14:16.519Z,8.20
2018-02-16T15:16:47.837Z,8.20
2018-02-16T15:19:18.346Z,7.90
2018-02-16T15:21:48.698Z,7.80
2018-02-16T15:24:18.863Z,7.80
2018-02-16T15:26:49.063Z,7.70
2018-02-16T15:29:21.694Z,7.70
2018-02-16T15:31:53.104Z,7.50
2018-02-16T15:34:24.116Z,7.60
2018-02-16T15:36:54.485Z,7.60
2018-02-16T15:39:25.251Z,7.60
2018-02-16T15:41:55.886Z,7.60
2018-02-16T15:44:26.098Z,7.30
2018-02-16T15:46:56.564Z,7.10
2018-02-16T15:49:26.799Z,7.00
2018-02-16T15:51:57.311Z,7.00
2018-02-16T15:54:27.855Z,6.90
2018-02-16T15:56:58.819Z,6.70
2018-02-16T15:59:28.984Z,6.70
2018-02-16T16:02:01.195Z,6.40
2018-02-16T16:04:31.743Z,6.50
2018-02-16T16:07:01.913Z,6.40
2018-02-16T16:09:32.522Z,6.40
2018-02-16T16:12:02.738Z,6.30
2018-02-16T16:14:33.216Z,6.20
2018-02-16T16:17:04.289Z,6.10
2018-02-16T16:19:34.770Z,6.10
2018-02-16T16:22:05.802Z,6.00
2018-02-16T16:24:36.357Z,6.00
2018-02-16T16:27:06.657Z,6.00
2018-02-16T16:29:37.798Z,5.80
2018-02-16T16:32:09.083Z,5.80
2018-02-16T16:34:40.259Z,5.80
2018-02-16T16:37:10.422Z,5.80
2018-02-16T16:39:41.544Z,5.60
2018-02-16T16:42:13.469Z,5.60
2018-02-16T16:44:44.511Z,5.50
2018-02-16T16:47:16.025Z,5.50
2018-02-16T16:49:46.939Z,5.40
2018-02-16T16:52:17.687Z,5.40
2018-02-16T16:54:50.740Z,5.40
2018-02-16T16:57:21.920Z,5.40
2018-02-16T16:59:52.830Z,5.30
2018-02-16T17:02:23.893Z,5.30
2018-02-16T17:04:54.687Z,5.30
2018-02-16T17:07:25.967Z,5.20
2018-02-16T17:09:57.432Z,5.10
2018-02-16T17:12:31.076Z,5.10
2018-02-16T17:15:02.079Z,5.10
2018-02-16T17:17:33.040Z,5.10
2018-02-16T17:20:04.813Z,5.00
2018-02-16T17:22:37.018Z,4.90
2018-02-16T17:25:07.753Z,4.90
2018-02-16T17:27:38.526Z,4.80
2018-02-16T17:30:10.934Z,4.60
2018-02-16T17:32:41.889Z,4.60
2018-02-16T17:35:13.860Z,4.50
2018-02-16T17:37:44.645Z,4.50
2018-02-16T17:40:15.358Z,4.50
2018-02-16T17:42:46.419Z,4.50
2018-02-16T17:45:17.550Z,4.50
2018-02-16T17:47:48.479Z,4.50
2018-02-16T17:50:19.495Z,4.50
2018-02-16T17:52:54.485Z,4.50
2018-02-16T17:55:28.523Z,4.40
2018-02-16T17:57:59.998Z,4.40
2018-02-16T18:00:31.389Z,4.40
2018-02-16T18:03:01.870Z,4.30
2018-02-16T18:05:35.313Z,4.30
2018-02-16T18:08:07.276Z,4.30
2018-02-16T18:10:38.980Z,4.20
2018-02-16T18:13:11.026Z,4.10
2018-02-16T18:15:42.355Z,4.00
2018-02-16T18:18:13.732Z,3.90
2018-02-16T18:20:44.285Z,3.90
2018-02-16T18:23:15.355Z,3.70
2018-02-16T18:25:46.140Z,3.70
2018-02-16T18:28:16.359Z,3.60
2018-02-16T18:30:46.578Z,3.70
2018-02-16T18:33:17.061Z,3.60
2018-02-16T18:35:47.374Z,3.60
2018-02-16T18:38:17.617Z,3.60
2018-02-16T18:40:47.917Z,3.50
2018-02-16T18:43:20.678Z,3.50
2018-02-16T18:45:50.850Z,3.40
2018-02-16T18:48:21.940Z,3.30
2018-02-16T18:50:52.423Z,3.30
2018-02-16T18:53:24.075Z,3.20
2018-02-16T18:55:54.395Z,3.10
2018-02-16T18:58:24.602Z,3.00
2018-02-16T19:00:55.164Z,2.90
2018-02-16T19:03:26.349Z,2.80
2018-02-16T19:05:56.628Z,2.80
2018-02-16T19:08:27.203Z,2.70
2018-02-16T19:10:57.567Z,2.70
2018-02-16T19:13:27.748Z,2.60
2018-02-16T19:15:57.919Z,2.60
2018-02-16T19:18:28.219Z,2.50
2018-02-16T19:20:59.542Z,2.60
2018-02-16T19:23:29.880Z,2.50
2018-02-16T19:26:00.454Z,2.50
2018-02-16T19:28:30.684Z,2.50
2018-02-16T19:31:00.850Z,2.40
2018-02-16T19:33:31.523Z,2.40
2018-02-16T19:36:01.749Z,2.30
2018-02-16T19:38:32.537Z,2.20
2018-02-16T19:41:05.609Z,2.20
2018-02-16T19:43:37.596Z,2.20
2018-02-16T19:46:07.751Z,2.00
2018-02-16T19:48:37.960Z,2.00
2018-02-16T19:51:08.219Z,1.90
2018-02-16T19:53:39.505Z,1.80
2018-02-16T20:02:54.562Z,1.80
2018-02-16T20:05:24.987Z,1.80
2018-02-16T20:07:55.202Z,1.80
2018-02-16T20:10:26.086Z,1.80
2018-02-16T20:12:56.417Z,1.60
2018-02-16T20:15:26.911Z,1.60
2018-02-16T20:17:57.902Z,1.60
2018-02-16T20:20:28.466Z,1.60
2018-02-16T20:22:58.963Z,1.50
2018-02-16T20:25:29.328Z,1.50
2018-02-16T20:28:00.218Z,1.50
2018-02-16T20:30:30.382Z,1.40
2018-02-16T20:33:01.365Z,1.40
2018-02-16T20:35:31.575Z,1.40
2018-02-16T20:38:02.188Z,1.40
2018-02-16T20:40:33.282Z,1.40
2018-02-16T20:43:03.785Z,1.40
2018-02-16T20:45:34.097Z,1.40
2018-02-16T20:48:04.740Z,1.40
2018-02-16T20:50:35.071Z,1.40
2018-02-16T20:53:05.419Z,1.40
2018-02-16T20:55:35.767Z,1.30
2018-02-16T20:58:07.029Z,1.20
2018-02-16T21:00:38.475Z,1.30
2018-02-16T21:03:14.479Z,1.20
2018-02-16T21:05:55.779Z,1.10
2018-02-16T21:08:54.787Z,1.10
2018-02-16T21:11:41.875Z,1.00
2018-02-16T21:14:29.273Z,1.10
2018-02-16T21:17:12.591Z,1.10
2018-02-16T21:19:51.053Z,1.00
2018-02-16T21:22:28.319Z,1.00
2018-02-16T21:25:05.973Z,1.00
2018-02-16T21:27:43.752Z,0.90
2018-02-16T21:30:21.808Z,0.90
2018-02-16T21:32:52.082Z,0.80
2018-02-16T21:35:22.335Z,0.80
2018-02-16T21:37:52.647Z,0.80
2018-02-16T21:40:23.315Z,0.70
2018-02-16T21:42:53.819Z,0.70
2018-02-16T21:45:23.943Z,0.70
2018-02-16T21:47:54.134Z,0.60
2018-02-16T21:50:25.189Z,0.60
2018-02-16T21:52:55.402Z,0.60
2018-02-16T21:55:26.342Z,0.60
2018-02-16T21:57:57.988Z,0.60
2018-02-16T22:00:28.125Z,0.60
2018-02-16T22:02:59.450Z,0.60
2018-02-16T22:05:29.817Z,0.60
2018-02-16T22:08:00.339Z,0.50
2018-02-16T22:10:30.498Z,0.50
2018-02-16T22:13:02.118Z,0.50
2018-02-16T22:15:32.766Z,0.60
2018-02-16T22:18:03.325Z,0.50
2018-02-16T22:20:34.153Z,0.50
2018-02-16T22:23:04.306Z,0.60
2018-02-16T22:25:35.318Z,0.50
2018-02-16T22:28:06.676Z,0.50
2018-02-16T22:30:37.142Z,0.50
2018-02-16T22:33:07.585Z,0.50
2018-02-16T22:35:38.039Z,0.40
2018-02-16T22:38:08.197Z,0.40
2018-02-16T22:40:38.951Z,0.30
2018-02-16T22:43:11.661Z,0.30
2018-02-16T22:45:42.577Z,0.30
2018-02-16T22:48:13.869Z,0.20
2018-02-16T22:50:44.218Z,0.20
2018-02-16T22:53:14.495Z,0.20
2018-02-16T22:55:44.749Z,0.20
2018-02-16T22:58:15.920Z,0.30
2018-02-16T23:00:46.609Z,0.20
2018-02-16T23:03:17.251Z,0.30
2018-02-16T23:05:47.586Z,0.30
2018-02-16T23:08:17.932Z,0.30
2018-02-16T23:10:48.258Z,0.30
2018-02-16T23:13:19.061Z,0.20
2018-02-16T23:15:50.586Z,0.20
2018-02-16T23:18:21.591Z,0.20
2018-02-16T23:20:52.067Z,0.20
2018-02-16T23:23:22.476Z,0.20
2018-02-16T23:25:52.782Z,0.20
2018-02-16T23:28:23.436Z,0.20
2018-02-16T23:30:53.675Z,0.20
2018-02-16T23:33:24.883Z,0.00
2018-02-16T23:35:54.978Z,0.00
2018-02-16T23:38:25.424Z,-0.10
2018-02-16T23:40:56.071Z,-0.10
2018-02-16T23:43:26.493Z,-0.20
2018-02-16T23:45:57.170Z,-0.20
2018-02-16T23:48:27.611Z,-0.20
2018-02-16T23:50:59.325Z,-0.20
2018-02-16T23:53:29.771Z,-0.20
2018-02-16T23:55:59.852Z,-0.20
2018-02-16T23:58:31.116Z,-0.10
